sensor_id;sensor_type;location;lat;lon;timestamp;temperature;humidity
59067;DHT22;44854;50.838;4.438;2023-09-19T04:14:10;16.30;99.90
59067;DHT22;44854;50.838;4.438;2023-09-19T04:16:35;16.30;99.90
59067;DHT22;44854;50.838;4.438;2023-09-19T04:19:01;16.40;99.90
59067;DHT22;44854;50.838;4.438;2023-09-19T04:21:27;16.20;99.90
59067;DHT22;44854;50.838;4.438;2023-09-19T04:24:03;16.30;99.90
59067;DHT22;44854;50.838;4.438;2023-09-19T04:26:29;16.20;99.90
59067;DHT22;44854;50.838;4.438;2023-09-19T04:28:56;16.30;99.90
59067;DHT22;44854;50.838;4.438;2023-09-19T04:31:21;16.40;99.90
59067;DHT22;44854;50.838;4.438;2023-09-19T04:33:47;16.30;99.90
59067;DHT22;44854;50.838;4.438;2023-09-19T04:36:13;16.30;99.90
59067;DHT22;44854;50.838;4.438;2023-09-19T04:38:38;16.10;99.90
59067;DHT22;44854;50.838;4.438;2023-09-19T04:41:04;16.10;99.90
59067;DHT22;44854;50.838;4.438;2023-09-19T04:43:29;16.20;99.90
59067;DHT22;44854;50.838;4.438;2023-09-19T04:45:55;16.20;99.90
59067;DHT22;44854;50.838;4.438;2023-09-19T04:48:23;16.20;99.90
59067;DHT22;44854;50.838;4.438;2023-09-19T04:50:49;16.20;99.90
59067;DHT22;44854;50.838;4.438;2023-09-19T04:53:16;16.20;99.90
59067;DHT22;44854;50.838;4.438;2023-09-19T04:55:43;16.20;99.90
59067;DHT22;44854;50.838;4.438;2023-09-19T04:58:08;16.20;99.90
59067;DHT22;44854;50.838;4.438;2023-09-19T05:00:33;16.20;99.90
59067;DHT22;44854;50.838;4.438;2023-09-19T05:03:00;16.10;99.90
59067;DHT22;44854;50.838;4.438;2023-09-19T05:05:26;16.00;99.90
59067;DHT22;44854;50.838;4.438;2023-09-19T05:07:52;15.80;99.90
59067;DHT22;44854;50.838;4.438;2023-09-19T05:10:19;15.90;99.90
59067;DHT22;44854;50.838;4.438;2023-09-19T05:12:45;16.00;99.90
59067;DHT22;44854;50.838;4.438;2023-09-19T05:15:13;16.00;99.90
59067;DHT22;44854;50.838;4.438;2023-09-19T05:17:51;15.90;99.90
59067;DHT22;44854;50.838;4.438;2023-09-19T05:20:20;15.90;99.90
59067;DHT22;44854;50.838;4.438;2023-09-19T05:23:03;16.00;99.90
59067;DHT22;44854;50.838;4.438;2023-09-19T05:25:33;16.10;99.90
59067;DHT22;44854;50.838;4.438;2023-09-19T05:28:02;15.80;99.90
59067;DHT22;44854;50.838;4.438;2023-09-19T05:30:31;15.80;99.90
59067;DHT22;44854;50.838;4.438;2023-09-19T05:32:57;15.80;99.90
59067;DHT22;44854;50.838;4.438;2023-09-19T05:35:24;15.80;99.90
59067;DHT22;44854;50.838;4.438;2023-09-19T05:37:53;15.80;99.90
59067;DHT22;44854;50.838;4.438;2023-09-19T05:40:20;15.80;99.90
59067;DHT22;44854;50.838;4.438;2023-09-19T05:42:46;15.80;99.90
59067;DHT22;44854;50.838;4.438;2023-09-19T05:45:12;15.90;99.90
59067;DHT22;44854;50.838;4.438;2023-09-19T05:47:41;15.90;99.90
59067;DHT22;44854;50.838;4.438;2023-09-19T05:50:11;16.00;99.90
59067;DHT22;44854;50.838;4.438;2023-09-19T05:52:37;16.10;99.90
59067;DHT22;44854;50.838;4.438;2023-09-19T05:55:04;16.10;99.90
59067;DHT22;44854;50.838;4.438;2023-09-19T05:57:30;16.10;99.90
59067;DHT22;44854;50.838;4.438;2023-09-19T05:59:56;16.00;99.90
59067;DHT22;44854;50.838;4.438;2023-09-19T06:02:21;16.00;99.90
59067;DHT22;44854;50.838;4.438;2023-09-19T06:04:47;16.00;99.90
59067;DHT22;44854;50.838;4.438;2023-09-19T06:07:12;16.00;99.90
59067;DHT22;44854;50.838;4.438;2023-09-19T06:09:38;16.00;99.90
59067;DHT22;44854;50.838;4.438;2023-09-19T06:12:04;16.20;99.90
59067;DHT22;44854;50.838;4.438;2023-09-19T06:14:30;16.20;99.90
59067;DHT22;44854;50.838;4.438;2023-09-19T06:16:56;16.20;99.90
59067;DHT22;44854;50.838;4.438;2023-09-19T06:19:21;16.20;99.90
59067;DHT22;44854;50.838;4.438;2023-09-19T06:21:48;16.20;99.90
59067;DHT22;44854;50.838;4.438;2023-09-19T06:24:14;16.30;99.90
59067;DHT22;44854;50.838;4.438;2023-09-19T06:26:40;16.20;99.90
59067;DHT22;44854;50.838;4.438;2023-09-19T06:29:06;16.30;99.90
59067;DHT22;44854;50.838;4.438;2023-09-19T06:31:35;16.30;99.90
59067;DHT22;44854;50.838;4.438;2023-09-19T06:34:00;16.30;99.90
59067;DHT22;44854;50.838;4.438;2023-09-19T06:36:26;16.30;99.90
59067;DHT22;44854;50.838;4.438;2023-09-19T06:38:51;16.40;99.90
59067;DHT22;44854;50.838;4.438;2023-09-19T06:41:19;16.40;99.90
59067;DHT22;44854;50.838;4.438;2023-09-19T06:43:45;16.40;99.90
59067;DHT22;44854;50.838;4.438;2023-09-19T06:46:10;16.40;99.90
59067;DHT22;44854;50.838;4.438;2023-09-19T06:48:38;16.30;99.90
59067;DHT22;44854;50.838;4.438;2023-09-19T06:51:03;16.40;99.90
59067;DHT22;44854;50.838;4.438;2023-09-19T06:53:32;16.50;99.90
59067;DHT22;44854;50.838;4.438;2023-09-19T06:55:58;16.50;99.90
59067;DHT22;44854;50.838;4.438;2023-09-19T06:58:24;16.60;99.90
59067;DHT22;44854;50.838;4.438;2023-09-19T07:00:49;16.60;99.90
59067;DHT22;44854;50.838;4.438;2023-09-19T07:03:17;16.60;99.90
59067;DHT22;44854;50.838;4.438;2023-09-19T07:05:47;16.60;99.90
59067;DHT22;44854;50.838;4.438;2023-09-19T07:08:12;16.60;99.90
59067;DHT22;44854;50.838;4.438;2023-09-19T07:10:38;16.40;99.90
59067;DHT22;44854;50.838;4.438;2023-09-19T07:13:13;16.40;99.90
59067;DHT22;44854;50.838;4.438;2023-09-19T07:15:42;16.50;99.90
59067;DHT22;44854;50.838;4.438;2023-09-19T07:18:12;16.40;99.90
59067;DHT22;44854;50.838;4.438;2023-09-19T07:20:38;16.50;99.90
59067;DHT22;44854;50.838;4.438;2023-09-19T07:23:03;16.70;99.90
59067;DHT22;44854;50.838;4.438;2023-09-19T07:25:29;16.60;99.90
59067;DHT22;44854;50.838;4.438;2023-09-19T07:27:55;16.60;99.90
59067;DHT22;44854;50.838;4.438;2023-09-19T07:30:21;16.70;99.90
59067;DHT22;44854;50.838;4.438;2023-09-19T07:32:47;16.70;99.90
59067;DHT22;44854;50.838;4.438;2023-09-19T07:35:13;16.70;99.90
59067;DHT22;44854;50.838;4.438;2023-09-19T07:37:42;16.90;99.90
59067;DHT22;44854;50.838;4.438;2023-09-19T07:40:07;17.00;99.90
59067;DHT22;44854;50.838;4.438;2023-09-19T07:42:37;17.10;99.90
59067;DHT22;44854;50.838;4.438;2023-09-19T07:45:04;17.00;99.90
59067;DHT22;44854;50.838;4.438;2023-09-19T07:47:30;17.10;99.90
59067;DHT22;44854;50.838;4.438;2023-09-19T07:49:58;17.10;99.90
59067;DHT22;44854;50.838;4.438;2023-09-19T07:52:29;17.30;99.90
59067;DHT22;44854;50.838;4.438;2023-09-19T07:54:54;17.40;99.90
59067;DHT22;44854;50.838;4.438;2023-09-19T07:57:22;17.40;99.90
59067;DHT22;44854;50.838;4.438;2023-09-19T07:59:48;17.50;99.90
59067;DHT22;44854;50.838;4.438;2023-09-19T08:02:13;17.50;99.90
59067;DHT22;44854;50.838;4.438;2023-09-19T08:04:44;17.40;99.90
59067;DHT22;44854;50.838;4.438;2023-09-19T08:07:14;17.50;99.90
59067;DHT22;44854;50.838;4.438;2023-09-19T08:09:39;17.50;99.90
59067;DHT22;44854;50.838;4.438;2023-09-19T08:12:05;17.60;99.90
59067;DHT22;44854;50.838;4.438;2023-09-19T08:14:33;17.60;99.90
59067;DHT22;44854;50.838;4.438;2023-09-19T08:16:59;17.60;99.90
59067;DHT22;44854;50.838;4.438;2023-09-19T08:19:26;17.80;99.90
59067;DHT22;44854;50.838;4.438;2023-09-19T08:21:56;17.90;99.90
59067;DHT22;44854;50.838;4.438;2023-09-19T08:24:28;17.60;99.90
59067;DHT22;44854;50.838;4.438;2023-09-19T08:26:54;17.70;99.90
59067;DHT22;44854;50.838;4.438;2023-09-19T08:29:21;17.60;99.90
59067;DHT22;44854;50.838;4.438;2023-09-19T08:31:46;17.80;99.90
59067;DHT22;44854;50.838;4.438;2023-09-19T08:34:16;17.90;99.90
59067;DHT22;44854;50.838;4.438;2023-09-19T08:36:41;17.90;99.90
59067;DHT22;44854;50.838;4.438;2023-09-19T08:39:09;17.80;99.90
59067;DHT22;44854;50.838;4.438;2023-09-19T08:41:35;17.80;99.90
59067;DHT22;44854;50.838;4.438;2023-09-19T08:44:00;17.80;99.90
59067;DHT22;44854;50.838;4.438;2023-09-19T08:46:30;18.10;99.90
59067;DHT22;44854;50.838;4.438;2023-09-19T08:49:03;18.30;99.90
59067;DHT22;44854;50.838;4.438;2023-09-19T08:51:33;18.30;99.90
59067;DHT22;44854;50.838;4.438;2023-09-19T08:54:07;18.50;99.90
59067;DHT22;44854;50.838;4.438;2023-09-19T08:56:35;18.30;99.90
59067;DHT22;44854;50.838;4.438;2023-09-19T08:59:03;18.40;99.90
59067;DHT22;44854;50.838;4.438;2023-09-19T09:01:37;18.60;99.90
59067;DHT22;44854;50.838;4.438;2023-09-19T09:04:05;18.80;99.90
59067;DHT22;44854;50.838;4.438;2023-09-19T09:06:34;18.80;99.90
59067;DHT22;44854;50.838;4.438;2023-09-19T09:09:01;19.00;99.90
59067;DHT22;44854;50.838;4.438;2023-09-19T09:11:28;19.00;99.90
59067;DHT22;44854;50.838;4.438;2023-09-19T09:13:53;18.80;99.90
59067;DHT22;44854;50.838;4.438;2023-09-19T09:16:19;18.80;99.90
59067;DHT22;44854;50.838;4.438;2023-09-19T09:18:45;18.90;99.90
59067;DHT22;44854;50.838;4.438;2023-09-19T09:21:12;19.00;99.90
59067;DHT22;44854;50.838;4.438;2023-09-19T09:23:39;18.90;99.90
59067;DHT22;44854;50.838;4.438;2023-09-19T09:26:04;19.20;99.90
59067;DHT22;44854;50.838;4.438;2023-09-19T09:28:31;19.20;99.90
59067;DHT22;44854;50.838;4.438;2023-09-19T09:30:58;19.40;99.90
59067;DHT22;44854;50.838;4.438;2023-09-19T09:33:24;19.40;99.90
59067;DHT22;44854;50.838;4.438;2023-09-19T09:35:54;19.30;99.90
59067;DHT22;44854;50.838;4.438;2023-09-19T09:38:25;19.50;99.90
59067;DHT22;44854;50.838;4.438;2023-09-19T09:40:53;19.50;99.90
59067;DHT22;44854;50.838;4.438;2023-09-19T09:43:34;19.50;99.90
59067;DHT22;44854;50.838;4.438;2023-09-19T09:46:07;19.40;99.90
59067;DHT22;44854;50.838;4.438;2023-09-19T09:48:44;19.40;99.90
59067;DHT22;44854;50.838;4.438;2023-09-19T09:51:28;19.50;99.90
59067;DHT22;44854;50.838;4.438;2023-09-19T09:54:09;19.60;99.90
59067;DHT22;44854;50.838;4.438;2023-09-19T09:56:35;19.30;99.90
59067;DHT22;44854;50.838;4.438;2023-09-19T09:59:16;19.10;99.90
59067;DHT22;44854;50.838;4.438;2023-09-19T10:01:47;19.10;99.90
59067;DHT22;44854;50.838;4.438;2023-09-19T10:04:26;19.20;99.90
59067;DHT22;44854;50.838;4.438;2023-09-19T10:06:54;19.10;99.90
59067;DHT22;44854;50.838;4.438;2023-09-19T10:09:20;19.10;99.90
59067;DHT22;44854;50.838;4.438;2023-09-19T10:11:46;19.20;99.90
59067;DHT22;44854;50.838;4.438;2023-09-19T10:14:16;19.30;99.90
59067;DHT22;44854;50.838;4.438;2023-09-19T10:16:48;19.20;99.90
59067;DHT22;44854;50.838;4.438;2023-09-19T10:19:52;19.30;99.90
59067;DHT22;44854;50.838;4.438;2023-09-19T10:22:05;19.20;99.90
59067;DHT22;44854;50.838;4.438;2023-09-19T10:24:34;19.40;99.90
59067;DHT22;44854;50.838;4.438;2023-09-19T10:27:01;19.40;99.90
59067;DHT22;44854;50.838;4.438;2023-09-19T10:29:29;19.50;99.90
59067;DHT22;44854;50.838;4.438;2023-09-19T10:31:58;19.60;99.90
59067;DHT22;44854;50.838;4.438;2023-09-19T10:34:23;19.60;99.90
59067;DHT22;44854;50.838;4.438;2023-09-19T10:36:50;19.60;99.90
59067;DHT22;44854;50.838;4.438;2023-09-19T10:39:16;19.80;99.90
59067;DHT22;44854;50.838;4.438;2023-09-19T10:41:50;19.90;99.90
59067;DHT22;44854;50.838;4.438;2023-09-19T10:44:21;20.00;99.90
59067;DHT22;44854;50.838;4.438;2023-09-19T10:46:49;20.10;99.90
59067;DHT22;44854;50.838;4.438;2023-09-19T10:49:14;20.10;99.90
59067;DHT22;44854;50.838;4.438;2023-09-19T10:51:41;20.20;99.90
59067;DHT22;44854;50.838;4.438;2023-09-19T10:54:13;20.30;99.90
59067;DHT22;44854;50.838;4.438;2023-09-19T10:56:46;20.30;99.90
59067;DHT22;44854;50.838;4.438;2023-09-19T10:59:13;20.30;99.90
59067;DHT22;44854;50.838;4.438;2023-09-19T11:01:43;20.00;99.90
59067;DHT22;44854;50.838;4.438;2023-09-19T11:06:59;20.60;99.90
59067;DHT22;44854;50.838;4.438;2023-09-19T11:09:25;20.50;99.90
59067;DHT22;44854;50.838;4.438;2023-09-19T11:12:07;20.30;99.90
59067;DHT22;44854;50.838;4.438;2023-09-19T11:14:37;20.20;99.90
59067;DHT22;44854;50.838;4.438;2023-09-19T11:22:23;20.40;99.90
59067;DHT22;44854;50.838;4.438;2023-09-19T11:24:51;20.50;99.90
59067;DHT22;44854;50.838;4.438;2023-09-19T11:27:17;20.60;99.90
59067;DHT22;44854;50.838;4.438;2023-09-19T11:29:43;20.60;99.90
59067;DHT22;44854;50.838;4.438;2023-09-19T11:32:10;20.60;99.90
59067;DHT22;44854;50.838;4.438;2023-09-19T11:37:01;20.90;99.90
59067;DHT22;44854;50.838;4.438;2023-09-19T11:39:29;20.80;99.90
59067;DHT22;44854;50.838;4.438;2023-09-19T11:41:55;20.90;99.90
59067;DHT22;44854;50.838;4.438;2023-09-19T11:44:31;21.10;99.90
59067;DHT22;44854;50.838;4.438;2023-09-19T11:46:59;20.80;99.90
59067;DHT22;44854;50.838;4.438;2023-09-19T11:49:26;20.70;99.90
59067;DHT22;44854;50.838;4.438;2023-09-19T11:51:55;20.80;99.90
59067;DHT22;44854;50.838;4.438;2023-09-19T11:54:21;20.60;99.90
59067;DHT22;44854;50.838;4.438;2023-09-19T11:56:48;20.60;99.90
59067;DHT22;44854;50.838;4.438;2023-09-19T11:59:22;20.80;99.90
59067;DHT22;44854;50.838;4.438;2023-09-19T12:01:51;20.70;99.90
59067;DHT22;44854;50.838;4.438;2023-09-19T12:04:35;20.60;99.90
59067;DHT22;44854;50.838;4.438;2023-09-19T12:07:09;20.70;99.90
59067;DHT22;44854;50.838;4.438;2023-09-19T12:09:44;20.90;99.90
59067;DHT22;44854;50.838;4.438;2023-09-19T12:12:22;20.90;99.90
59067;DHT22;44854;50.838;4.438;2023-09-19T12:14:52;21.10;99.90
59067;DHT22;44854;50.838;4.438;2023-09-19T12:17:18;21.20;99.90
59067;DHT22;44854;50.838;4.438;2023-09-19T12:19:50;21.00;99.90
59067;DHT22;44854;50.838;4.438;2023-09-19T12:22:16;20.80;99.90
59067;DHT22;44854;50.838;4.438;2023-09-19T12:24:44;20.80;99.90
59067;DHT22;44854;50.838;4.438;2023-09-19T12:27:10;20.80;99.90
59067;DHT22;44854;50.838;4.438;2023-09-19T12:32:09;20.80;99.90
59067;DHT22;44854;50.838;4.438;2023-09-19T12:34:35;20.80;99.90
59067;DHT22;44854;50.838;4.438;2023-09-19T12:39:46;20.80;99.90
59067;DHT22;44854;50.838;4.438;2023-09-19T12:42:15;20.90;99.90
59067;DHT22;44854;50.838;4.438;2023-09-19T12:44:44;20.80;99.90
59067;DHT22;44854;50.838;4.438;2023-09-19T12:47:11;20.90;99.90
59067;DHT22;44854;50.838;4.438;2023-09-19T12:50:04;21.10;99.90
59067;DHT22;44854;50.838;4.438;2023-09-19T12:52:22;20.80;99.90
59067;DHT22;44854;50.838;4.438;2023-09-19T12:54:51;20.70;99.90
59067;DHT22;44854;50.838;4.438;2023-09-19T12:57:23;20.90;99.90
59067;DHT22;44854;50.838;4.438;2023-09-19T12:59:51;20.90;99.90
59067;DHT22;44854;50.838;4.438;2023-09-19T13:02:17;21.10;99.90
59067;DHT22;44854;50.838;4.438;2023-09-19T13:04:51;21.10;99.90
59067;DHT22;44854;50.838;4.438;2023-09-19T13:10:04;20.80;99.90
59067;DHT22;44854;50.838;4.438;2023-09-19T13:12:38;20.90;99.90
59067;DHT22;44854;50.838;4.438;2023-09-19T13:15:13;21.10;99.90
59067;DHT22;44854;50.838;4.438;2023-09-19T13:17:44;20.90;99.90
59067;DHT22;44854;50.838;4.438;2023-09-19T13:20:28;21.00;99.90
59067;DHT22;44854;50.838;4.438;2023-09-19T13:22:55;21.10;99.90
59067;DHT22;44854;50.838;4.438;2023-09-19T13:25:25;21.10;99.90
59067;DHT22;44854;50.838;4.438;2023-09-19T13:27:53;21.10;99.90
59067;DHT22;44854;50.838;4.438;2023-09-19T13:30:24;21.30;99.90
59067;DHT22;44854;50.838;4.438;2023-09-19T13:32:50;21.20;99.90
59067;DHT22;44854;50.838;4.438;2023-09-19T13:35:16;21.10;99.90
59067;DHT22;44854;50.838;4.438;2023-09-19T13:37:42;21.00;99.90
59067;DHT22;44854;50.838;4.438;2023-09-19T13:40:09;21.20;99.90
59067;DHT22;44854;50.838;4.438;2023-09-19T13:42:34;21.40;99.90
59067;DHT22;44854;50.838;4.438;2023-09-19T13:45:06;21.30;99.90
59067;DHT22;44854;50.838;4.438;2023-09-19T13:47:32;21.50;99.90
59067;DHT22;44854;50.838;4.438;2023-09-19T13:49:58;21.60;99.90
59067;DHT22;44854;50.838;4.438;2023-09-19T13:52:23;21.70;99.90
59067;DHT22;44854;50.838;4.438;2023-09-19T13:54:52;21.70;99.90
59067;DHT22;44854;50.838;4.438;2023-09-19T13:57:24;21.90;99.90
59067;DHT22;44854;50.838;4.438;2023-09-19T13:59:50;21.80;99.90
59067;DHT22;44854;50.838;4.438;2023-09-19T14:02:17;21.70;99.90
59067;DHT22;44854;50.838;4.438;2023-09-19T14:04:43;21.60;99.90
59067;DHT22;44854;50.838;4.438;2023-09-19T14:07:09;21.40;99.90
59067;DHT22;44854;50.838;4.438;2023-09-19T14:09:36;21.30;99.90
59067;DHT22;44854;50.838;4.438;2023-09-19T14:12:02;21.20;99.90
59067;DHT22;44854;50.838;4.438;2023-09-19T14:14:27;21.40;99.90
59067;DHT22;44854;50.838;4.438;2023-09-19T14:16:53;21.40;99.90
59067;DHT22;44854;50.838;4.438;2023-09-19T14:19:19;21.30;99.90
59067;DHT22;44854;50.838;4.438;2023-09-19T14:21:50;21.20;99.90
59067;DHT22;44854;50.838;4.438;2023-09-19T14:24:17;21.20;99.90
59067;DHT22;44854;50.838;4.438;2023-09-19T14:26:43;21.30;99.90
59067;DHT22;44854;50.838;4.438;2023-09-19T14:29:08;21.20;99.90
59067;DHT22;44854;50.838;4.438;2023-09-19T14:31:37;21.10;99.90
59067;DHT22;44854;50.838;4.438;2023-09-19T14:34:02;21.00;99.90
59067;DHT22;44854;50.838;4.438;2023-09-19T14:36:29;21.10;99.90
59067;DHT22;44854;50.838;4.438;2023-09-19T14:38:55;21.10;99.90
59067;DHT22;44854;50.838;4.438;2023-09-19T14:41:21;21.20;99.90
59067;DHT22;44854;50.838;4.438;2023-09-19T14:43:47;21.20;99.90
59067;DHT22;44854;50.838;4.438;2023-09-19T14:46:13;21.30;99.90
59067;DHT22;44854;50.838;4.438;2023-09-19T14:48:39;21.50;99.90
59067;DHT22;44854;50.838;4.438;2023-09-19T14:51:08;21.60;99.90
59067;DHT22;44854;50.838;4.438;2023-09-19T14:53:34;21.60;99.90
59067;DHT22;44854;50.838;4.438;2023-09-19T14:56:01;21.80;99.90
59067;DHT22;44854;50.838;4.438;2023-09-19T14:58:28;21.40;99.90
59067;DHT22;44854;50.838;4.438;2023-09-19T15:01:02;21.10;99.90
59067;DHT22;44854;50.838;4.438;2023-09-19T15:03:28;20.90;99.90
59067;DHT22;44854;50.838;4.438;2023-09-19T15:05:59;21.00;99.90
59067;DHT22;44854;50.838;4.438;2023-09-19T15:08:25;20.90;99.90
59067;DHT22;44854;50.838;4.438;2023-09-19T15:10:56;20.90;99.90
59067;DHT22;44854;50.838;4.438;2023-09-19T15:13:24;21.20;99.90
59067;DHT22;44854;50.838;4.438;2023-09-19T15:15:58;21.10;99.90
59067;DHT22;44854;50.838;4.438;2023-09-19T15:18:23;21.40;99.90
59067;DHT22;44854;50.838;4.438;2023-09-19T15:20:49;21.40;99.90
59067;DHT22;44854;50.838;4.438;2023-09-19T15:23:16;21.30;99.90
59067;DHT22;44854;50.838;4.438;2023-09-19T15:25:49;21.20;99.90
59067;DHT22;44854;50.838;4.438;2023-09-19T15:28:15;21.30;99.90
59067;DHT22;44854;50.838;4.438;2023-09-19T15:30:41;21.20;99.90
59067;DHT22;44854;50.838;4.438;2023-09-19T15:33:06;21.10;99.90
59067;DHT22;44854;50.838;4.438;2023-09-19T15:35:32;21.00;99.90
59067;DHT22;44854;50.838;4.438;2023-09-19T15:37:58;20.90;99.90
59067;DHT22;44854;50.838;4.438;2023-09-19T15:40:25;20.90;99.90
59067;DHT22;44854;50.838;4.438;2023-09-19T15:42:51;20.80;99.90
59067;DHT22;44854;50.838;4.438;2023-09-19T15:45:17;20.60;99.90
59067;DHT22;44854;50.838;4.438;2023-09-19T15:47:44;20.80;99.90
59067;DHT22;44854;50.838;4.438;2023-09-19T15:50:10;20.80;99.90
59067;DHT22;44854;50.838;4.438;2023-09-19T15:52:38;20.80;99.90
59067;DHT22;44854;50.838;4.438;2023-09-19T15:55:05;20.70;99.90
59067;DHT22;44854;50.838;4.438;2023-09-19T15:57:31;20.80;99.90
59067;DHT22;44854;50.838;4.438;2023-09-19T15:59:57;20.70;99.90
59067;DHT22;44854;50.838;4.438;2023-09-19T16:02:23;20.70;99.90
59067;DHT22;44854;50.838;4.438;2023-09-19T16:04:50;20.70;99.90
59067;DHT22;44854;50.838;4.438;2023-09-19T16:07:16;20.70;99.90
59067;DHT22;44854;50.838;4.438;2023-09-19T16:09:41;20.60;99.90
59067;DHT22;44854;50.838;4.438;2023-09-19T16:12:07;20.60;99.90
59067;DHT22;44854;50.838;4.438;2023-09-19T16:14:34;20.60;99.90
59067;DHT22;44854;50.838;4.438;2023-09-19T16:17:00;20.60;99.90
59067;DHT22;44854;50.838;4.438;2023-09-19T16:19:27;20.70;99.90
59067;DHT22;44854;50.838;4.438;2023-09-19T16:21:53;20.70;99.90
59067;DHT22;44854;50.838;4.438;2023-09-19T16:24:18;20.40;99.90
59067;DHT22;44854;50.838;4.438;2023-09-19T16:26:44;20.40;99.90
59067;DHT22;44854;50.838;4.438;2023-09-19T16:29:10;20.50;99.90
59067;DHT22;44854;50.838;4.438;2023-09-19T16:31:36;20.40;99.90
59067;DHT22;44854;50.838;4.438;2023-09-19T16:34:02;20.20;99.90
59067;DHT22;44854;50.838;4.438;2023-09-19T16:36:28;20.40;99.90
59067;DHT22;44854;50.838;4.438;2023-09-19T16:38:54;20.40;99.90
59067;DHT22;44854;50.838;4.438;2023-09-19T16:41:19;20.40;99.90
59067;DHT22;44854;50.838;4.438;2023-09-19T16:43:45;20.40;99.90
59067;DHT22;44854;50.838;4.438;2023-09-19T16:46:11;20.30;99.90
59067;DHT22;44854;50.838;4.438;2023-09-19T16:48:38;20.40;99.90
59067;DHT22;44854;50.838;4.438;2023-09-19T16:51:05;20.50;99.90
59067;DHT22;44854;50.838;4.438;2023-09-19T16:53:32;20.40;99.90
59067;DHT22;44854;50.838;4.438;2023-09-19T16:56:10;20.40;99.90
59067;DHT22;44854;50.838;4.438;2023-09-19T16:58:39;20.10;99.90
59067;DHT22;44854;50.838;4.438;2023-09-19T17:01:08;20.00;99.90
59067;DHT22;44854;50.838;4.438;2023-09-19T17:03:37;20.00;99.90
59067;DHT22;44854;50.838;4.438;2023-09-19T17:06:02;20.20;99.90
59067;DHT22;44854;50.838;4.438;2023-09-19T17:08:29;20.20;99.90
59067;DHT22;44854;50.838;4.438;2023-09-19T17:11:04;20.10;99.90
59067;DHT22;44854;50.838;4.438;2023-09-19T17:13:31;20.10;99.90
59067;DHT22;44854;50.838;4.438;2023-09-19T17:16:01;19.90;99.90
59067;DHT22;44854;50.838;4.438;2023-09-19T17:18:27;19.90;99.90
59067;DHT22;44854;50.838;4.438;2023-09-19T17:20:53;19.90;99.90
59067;DHT22;44854;50.838;4.438;2023-09-19T17:23:19;20.00;99.90
59067;DHT22;44854;50.838;4.438;2023-09-19T17:25:45;20.00;99.90
59067;DHT22;44854;50.838;4.438;2023-09-19T17:28:10;20.10;99.90
59067;DHT22;44854;50.838;4.438;2023-09-19T17:30:36;20.00;99.90
59067;DHT22;44854;50.838;4.438;2023-09-19T17:33:04;19.90;99.90
59067;DHT22;44854;50.838;4.438;2023-09-19T17:35:30;20.00;99.90
59067;DHT22;44854;50.838;4.438;2023-09-19T17:37:56;19.90;99.90
59067;DHT22;44854;50.838;4.438;2023-09-19T17:40:22;19.70;99.90
59067;DHT22;44854;50.838;4.438;2023-09-19T17:42:48;19.60;99.90
59067;DHT22;44854;50.838;4.438;2023-09-19T17:45:16;19.60;99.90
59067;DHT22;44854;50.838;4.438;2023-09-19T17:47:43;19.70;99.90
59067;DHT22;44854;50.838;4.438;2023-09-19T17:50:09;19.70;99.90
59067;DHT22;44854;50.838;4.438;2023-09-19T17:52:41;19.60;99.90
59067;DHT22;44854;50.838;4.438;2023-09-19T17:55:10;19.50;99.90
59067;DHT22;44854;50.838;4.438;2023-09-19T17:57:37;19.50;99.90
59067;DHT22;44854;50.838;4.438;2023-09-19T18:00:03;19.40;99.90
59067;DHT22;44854;50.838;4.438;2023-09-19T18:02:34;19.40;99.90
59067;DHT22;44854;50.838;4.438;2023-09-19T18:04:59;19.40;99.90
59067;DHT22;44854;50.838;4.438;2023-09-19T18:07:25;19.60;99.90
59067;DHT22;44854;50.838;4.438;2023-09-19T18:09:50;19.60;99.90
59067;DHT22;44854;50.838;4.438;2023-09-19T18:12:16;19.60;99.90
59067;DHT22;44854;50.838;4.438;2023-09-19T18:14:46;19.60;99.90
59067;DHT22;44854;50.838;4.438;2023-09-19T18:17:11;19.60;99.90
59067;DHT22;44854;50.838;4.438;2023-09-19T18:19:39;19.40;99.90
59067;DHT22;44854;50.838;4.438;2023-09-19T18:22:04;19.50;99.90
59067;DHT22;44854;50.838;4.438;2023-09-19T18:24:30;19.60;99.90
59067;DHT22;44854;50.838;4.438;2023-09-19T18:26:58;19.60;99.90
59067;DHT22;44854;50.838;4.438;2023-09-19T18:29:24;19.60;99.90
59067;DHT22;44854;50.838;4.438;2023-09-19T18:31:50;19.60;99.90
59067;DHT22;44854;50.838;4.438;2023-09-19T18:34:18;19.70;99.90
59067;DHT22;44854;50.838;4.438;2023-09-19T18:36:44;19.50;99.90
59067;DHT22;44854;50.838;4.438;2023-09-19T18:39:10;19.50;99.90
59067;DHT22;44854;50.838;4.438;2023-09-19T18:41:35;19.50;99.90
59067;DHT22;44854;50.838;4.438;2023-09-19T18:44:04;19.60;99.90
59067;DHT22;44854;50.838;4.438;2023-09-19T18:46:29;19.60;99.90
59067;DHT22;44854;50.838;4.438;2023-09-19T18:48:59;19.50;99.90
59067;DHT22;44854;50.838;4.438;2023-09-19T18:51:24;19.50;99.90
59067;DHT22;44854;50.838;4.438;2023-09-19T18:53:50;19.30;99.90
59067;DHT22;44854;50.838;4.438;2023-09-19T18:56:24;19.50;99.90
59067;DHT22;44854;50.838;4.438;2023-09-19T18:59:00;19.40;99.90
59067;DHT22;44854;50.838;4.438;2023-09-19T19:01:25;19.40;99.90
59067;DHT22;44854;50.838;4.438;2023-09-19T19:03:51;19.60;99.90
59067;DHT22;44854;50.838;4.438;2023-09-19T19:06:17;19.50;99.90
59067;DHT22;44854;50.838;4.438;2023-09-19T19:08:43;19.40;99.90
59067;DHT22;44854;50.838;4.438;2023-09-19T19:11:16;19.40;99.90
59067;DHT22;44854;50.838;4.438;2023-09-19T19:13:43;19.40;99.90
59067;DHT22;44854;50.838;4.438;2023-09-19T19:16:10;19.40;99.90
59067;DHT22;44854;50.838;4.438;2023-09-19T19:18:36;19.40;99.90
59067;DHT22;44854;50.838;4.438;2023-09-19T19:21:02;19.60;99.90
59067;DHT22;44854;50.838;4.438;2023-09-19T19:23:29;19.70;99.90
59067;DHT22;44854;50.838;4.438;2023-09-19T19:25:55;19.50;99.90
59067;DHT22;44854;50.838;4.438;2023-09-19T19:28:25;19.40;99.90
59067;DHT22;44854;50.838;4.438;2023-09-19T19:30:50;19.50;99.90
59067;DHT22;44854;50.838;4.438;2023-09-19T19:33:16;19.40;99.90
59067;DHT22;44854;50.838;4.438;2023-09-19T19:35:42;19.40;99.90
59067;DHT22;44854;50.838;4.438;2023-09-19T19:38:10;19.50;99.90
59067;DHT22;44854;50.838;4.438;2023-09-19T19:40:38;19.50;99.90
59067;DHT22;44854;50.838;4.438;2023-09-19T19:43:04;19.60;99.90
59067;DHT22;44854;50.838;4.438;2023-09-19T19:45:30;19.50;99.90
59067;DHT22;44854;50.838;4.438;2023-09-19T19:47:59;19.70;99.90
59067;DHT22;44854;50.838;4.438;2023-09-19T19:50:24;19.60;99.90
59067;DHT22;44854;50.838;4.438;2023-09-19T19:52:53;19.60;99.90
59067;DHT22;44854;50.838;4.438;2023-09-19T19:55:24;19.50;99.90
59067;DHT22;44854;50.838;4.438;2023-09-19T19:57:55;19.50;99.90
59067;DHT22;44854;50.838;4.438;2023-09-19T20:00:21;19.50;99.90
59067;DHT22;44854;50.838;4.438;2023-09-19T20:02:48;19.60;99.90
59067;DHT22;44854;50.838;4.438;2023-09-19T20:05:14;19.70;99.90